createdAt,value
2018-06-09T00:00:14.770Z,15.10
2018-06-09T00:01:15.005Z,16.20
2018-06-09T00:02:15.234Z,15.80
2018-06-09T00:03:15.471Z,15.70
2018-06-09T00:04:15.708Z,15.90
2018-06-09T00:05:15.937Z,16.10
2018-06-09T00:06:16.169Z,14.30
2018-06-09T00:07:16.401Z,14.80
2018-06-09T00:08:16.633Z,14.90
2018-06-09T00:09:16.867Z,14.90
2018-06-09T00:10:17.100Z,15.40
2018-06-09T00:11:17.332Z,15.70
2018-06-09T00:12:17.566Z,14.90
2018-06-09T00:13:17.798Z,15.90
2018-06-09T00:14:18.028Z,15.70
2018-06-09T00:15:18.264Z,16.10
2018-06-09T00:16:18.496Z,16.20
2018-06-09T00:17:18.727Z,16.30
2018-06-09T00:18:18.960Z,15.50
2018-06-09T00:19:19.194Z,15.00
2018-06-09T00:20:19.438Z,15.60
2018-06-09T00:21:19.656Z,15.50
2018-06-09T00:22:19.888Z,15.10
2018-06-09T00:23:20.120Z,15.20
2018-06-09T00:24:20.356Z,14.30
2018-06-09T00:25:20.583Z,15.20
2018-06-09T00:26:20.819Z,14.20
2018-06-09T00:27:21.053Z,14.50
2018-06-09T00:28:21.290Z,15.00
2018-06-09T00:29:21.516Z,14.80
2018-06-09T00:30:21.755Z,14.70
2018-06-09T00:31:21.985Z,14.80
2018-06-09T00:32:22.214Z,14.90
2018-06-09T00:33:22.442Z,15.30
2018-06-09T00:34:22.674Z,15.30
2018-06-09T00:35:22.900Z,16.20
2018-06-09T00:36:23.138Z,14.50
2018-06-09T00:37:23.371Z,15.20
2018-06-09T00:38:23.608Z,15.40
2018-06-09T00:39:23.836Z,15.10
2018-06-09T00:40:24.069Z,15.60
2018-06-09T00:41:24.302Z,14.50
2018-06-09T00:42:24.534Z,15.90
2018-06-09T00:43:24.766Z,15.00
2018-06-09T00:44:25.000Z,15.70
2018-06-09T00:45:25.232Z,15.40
2018-06-09T00:46:25.464Z,15.20
2018-06-09T00:47:25.696Z,15.70
2018-06-09T00:48:25.929Z,15.50
2018-06-09T00:49:26.162Z,15.90
2018-06-09T00:50:26.393Z,16.20
2018-06-09T00:51:26.625Z,16.30
2018-06-09T00:52:26.858Z,16.60
2018-06-09T00:53:27.092Z,16.40
2018-06-09T00:54:27.322Z,16.00
2018-06-09T00:55:27.556Z,15.60
2018-06-09T00:56:27.787Z,16.40
2018-06-09T00:57:28.018Z,16.50
2018-06-09T00:58:28.249Z,15.80
2018-06-09T00:59:28.479Z,16.30
2018-06-09T01:00:28.716Z,16.00
2018-06-09T01:01:28.955Z,14.70
2018-06-09T01:02:29.191Z,15.90
2018-06-09T01:03:29.415Z,15.70
2018-06-09T01:04:29.647Z,16.00
2018-06-09T01:05:29.879Z,15.70
2018-06-09T01:06:30.116Z,16.60
2018-06-09T01:07:30.353Z,16.40
2018-06-09T01:08:30.574Z,16.00
2018-06-09T01:09:30.807Z,16.40
2018-06-09T01:10:31.037Z,15.00
2018-06-09T01:11:31.274Z,16.70
2018-06-09T01:12:31.558Z,18.40
2018-06-09T01:13:31.736Z,17.70
2018-06-09T01:14:31.970Z,17.10
2018-06-09T01:15:32.208Z,16.70
2018-06-09T01:16:32.440Z,16.00
2018-06-09T01:17:32.672Z,15.40
2018-06-09T01:18:32.903Z,16.20
2018-06-09T01:19:33.135Z,15.30
2018-06-09T01:20:33.369Z,14.60
2018-06-09T01:21:33.597Z,15.40
2018-06-09T01:22:33.828Z,15.90
2018-06-09T01:23:34.062Z,14.80
2018-06-09T01:24:34.292Z,15.40
2018-06-09T01:25:34.526Z,15.00
2018-06-09T01:26:34.758Z,15.10
2018-06-09T01:27:34.992Z,15.40
2018-06-09T01:28:35.221Z,15.50
2018-06-09T01:29:35.454Z,15.30
2018-06-09T01:30:35.684Z,15.10
2018-06-09T01:31:35.917Z,15.10
2018-06-09T01:32:36.151Z,15.80
2018-06-09T01:33:36.382Z,15.60
2018-06-09T01:34:36.617Z,15.50
2018-06-09T01:35:36.842Z,15.50
2018-06-09T01:36:37.075Z,15.80
2018-06-09T01:37:37.305Z,16.10
2018-06-09T01:38:37.541Z,15.20
2018-06-09T01:39:37.771Z,15.10
2018-06-09T01:40:38.003Z,15.40
2018-06-09T01:41:38.236Z,15.00
2018-06-09T01:42:38.466Z,15.50
2018-06-09T01:43:38.699Z,16.50
2018-06-09T01:44:38.934Z,16.10
2018-06-09T01:45:39.162Z,16.40
2018-06-09T01:46:39.396Z,14.70
2018-06-09T01:47:39.630Z,14.50
2018-06-09T01:48:39.857Z,15.60
2018-06-09T01:49:40.092Z,14.60
2018-06-09T01:50:40.331Z,14.30
2018-06-09T01:51:40.566Z,14.70
2018-06-09T01:52:40.791Z,14.70
2018-06-09T01:53:41.023Z,14.80
2018-06-09T01:54:41.254Z,15.00
2018-06-09T01:55:41.486Z,15.60
2018-06-09T01:56:41.719Z,15.00
2018-06-09T01:57:41.954Z,14.70
2018-06-09T01:58:42.182Z,14.00
2018-06-09T01:59:42.412Z,14.50
2018-06-09T02:00:42.645Z,13.50
2018-06-09T02:01:42.880Z,14.60
2018-06-09T02:02:43.108Z,15.40
2018-06-09T02:03:43.340Z,14.20
2018-06-09T02:04:43.573Z,14.50
2018-06-09T02:05:43.804Z,14.20
2018-06-09T02:06:44.036Z,13.90
2018-06-09T02:07:44.266Z,14.80
2018-06-09T02:08:44.499Z,14.60
2018-06-09T02:09:44.731Z,15.10
2018-06-09T02:10:44.964Z,14.90
2018-06-09T02:11:45.192Z,15.90
2018-06-09T02:12:45.425Z,14.80
2018-06-09T02:13:45.657Z,15.40
2018-06-09T02:14:45.886Z,15.10
2018-06-09T02:15:46.123Z,14.80
2018-06-09T02:16:46.349Z,14.90
2018-06-09T02:17:46.581Z,14.10
2018-06-09T02:18:46.812Z,15.00
2018-06-09T02:19:47.050Z,14.60
2018-06-09T02:20:47.277Z,15.10
2018-06-09T02:21:47.509Z,13.30
2018-06-09T02:22:47.741Z,14.80
2018-06-09T02:23:47.983Z,14.90
2018-06-09T02:24:48.200Z,15.40
2018-06-09T02:25:48.430Z,14.30
2018-06-09T02:26:48.664Z,14.50
2018-06-09T02:27:48.895Z,15.50
2018-06-09T02:28:49.127Z,13.90
2018-06-09T02:29:49.357Z,15.50
2018-06-09T02:30:49.589Z,14.90
2018-06-09T02:31:49.818Z,15.30
2018-06-09T02:32:50.050Z,14.90
2018-06-09T02:33:50.282Z,15.30
2018-06-09T02:34:50.515Z,15.00
2018-06-09T02:35:50.744Z,14.80
2018-06-09T02:36:50.977Z,14.30
2018-06-09T02:37:51.207Z,14.50
2018-06-09T02:38:51.440Z,14.60
2018-06-09T02:39:51.673Z,14.40
2018-06-09T02:40:51.906Z,14.20
2018-06-09T02:41:52.138Z,13.80
2018-06-09T02:42:52.370Z,14.40
2018-06-09T02:43:52.602Z,13.80
2018-06-09T02:44:52.835Z,13.10
2018-06-09T02:45:53.067Z,14.00
2018-06-09T02:46:53.300Z,13.70
2018-06-09T02:47:53.530Z,13.90
2018-06-09T02:48:53.760Z,13.60
2018-06-09T02:49:53.992Z,14.60
2018-06-09T02:50:54.224Z,13.70
2018-06-09T02:51:54.454Z,13.90
2018-06-09T02:52:54.685Z,14.50
2018-06-09T02:53:54.916Z,13.80
2018-06-09T02:54:55.149Z,14.80
2018-06-09T02:55:55.379Z,14.50
2018-06-09T02:56:55.611Z,14.60
2018-06-09T02:57:55.842Z,15.30
2018-06-09T02:58:56.074Z,15.00
2018-06-09T02:59:56.303Z,15.90
2018-06-09T03:00:56.535Z,15.10
2018-06-09T03:01:56.766Z,15.10
2018-06-09T03:02:56.997Z,14.60
2018-06-09T03:03:57.229Z,15.70
2018-06-09T03:04:57.461Z,14.70
2018-06-09T03:05:57.691Z,14.80
2018-06-09T03:06:57.946Z,14.50
2018-06-09T03:07:58.159Z,14.90
2018-06-09T03:08:58.389Z,13.20
2018-06-09T03:09:58.631Z,13.70
2018-06-09T03:10:58.855Z,14.10
2018-06-09T03:11:59.086Z,14.50
2018-06-09T03:12:59.319Z,13.50
2018-06-09T03:13:59.550Z,14.40
2018-06-09T03:14:59.781Z,14.10
2018-06-09T03:16:00.025Z,13.60
2018-06-09T03:17:00.245Z,13.30
2018-06-09T03:18:00.477Z,13.80
2018-06-09T03:19:00.709Z,13.60
2018-06-09T03:20:00.943Z,13.60
2018-06-09T03:21:01.173Z,13.50
2018-06-09T03:22:01.403Z,13.10
2018-06-09T03:23:01.637Z,13.80
2018-06-09T03:24:01.869Z,13.80
2018-06-09T03:25:02.102Z,14.20
2018-06-09T03:26:02.331Z,13.40
2018-06-09T03:27:02.561Z,14.30
2018-06-09T03:28:02.795Z,13.40
2018-06-09T03:29:03.026Z,13.70
2018-06-09T03:30:03.257Z,14.00
2018-06-09T03:31:03.491Z,14.10
2018-06-09T03:32:03.725Z,14.30
2018-06-09T03:33:03.956Z,13.80
2018-06-09T03:34:04.185Z,13.90
2018-06-09T03:35:04.417Z,13.90
2018-06-09T03:36:04.649Z,14.00
2018-06-09T03:37:04.885Z,14.30
2018-06-09T03:38:05.116Z,13.90
2018-06-09T03:39:05.348Z,13.40
2018-06-09T03:40:05.586Z,13.40
2018-06-09T03:41:05.812Z,13.10
2018-06-09T03:42:06.046Z,13.10
2018-06-09T03:43:06.337Z,13.90
2018-06-09T03:44:06.513Z,12.70
2018-06-09T03:45:06.747Z,12.50
2018-06-09T03:46:06.976Z,12.80
2018-06-09T03:47:07.207Z,11.70
2018-06-09T03:48:07.440Z,12.70
2018-06-09T03:49:07.672Z,13.00
2018-06-09T03:50:07.904Z,13.00
2018-06-09T03:51:08.135Z,13.10
2018-06-09T03:52:08.366Z,13.30
2018-06-09T03:53:08.601Z,13.10
2018-06-09T03:54:08.838Z,13.80
2018-06-09T03:55:09.069Z,14.20
2018-06-09T03:56:09.299Z,13.50
2018-06-09T03:57:09.531Z,13.70
2018-06-09T03:58:09.766Z,13.90
2018-06-09T03:59:09.998Z,13.80
2018-06-09T04:00:10.230Z,13.20
2018-06-09T04:01:10.462Z,13.80
2018-06-09T04:02:10.693Z,13.40
2018-06-09T04:03:10.924Z,13.90
2018-06-09T04:04:11.157Z,14.90
2018-06-09T04:05:11.391Z,13.70
2018-06-09T04:06:11.621Z,14.00
2018-06-09T04:07:11.855Z,14.40
2018-06-09T04:08:12.085Z,14.80
2018-06-09T04:09:12.321Z,14.60
2018-06-09T04:10:12.551Z,14.70
2018-06-09T04:11:12.783Z,13.70
2018-06-09T04:12:13.015Z,14.50
2018-06-09T04:13:13.247Z,13.20
2018-06-09T04:14:13.479Z,14.20
2018-06-09T04:15:13.712Z,14.20
2018-06-09T04:16:13.946Z,13.80
2018-06-09T04:17:14.182Z,14.60
2018-06-09T04:18:14.411Z,14.50
2018-06-09T04:19:14.644Z,13.40
2018-06-09T04:20:14.877Z,13.70
2018-06-09T04:21:15.114Z,13.70
2018-06-09T04:22:15.345Z,14.00
2018-06-09T04:23:15.575Z,14.10
2018-06-09T04:24:15.807Z,13.70
2018-06-09T04:25:16.041Z,12.80
2018-06-09T04:26:16.272Z,13.30
2018-06-09T04:27:16.506Z,13.50
2018-06-09T04:28:16.753Z,13.80
2018-06-09T04:29:16.975Z,13.00
2018-06-09T04:30:17.215Z,13.50
2018-06-09T04:31:17.444Z,13.90
2018-06-09T04:32:17.674Z,13.60
2018-06-09T04:33:17.907Z,13.60
2018-06-09T04:34:18.143Z,13.30
2018-06-09T04:35:18.372Z,13.30
2018-06-09T04:36:18.608Z,13.40
2018-06-09T04:37:18.843Z,13.50
2018-06-09T04:38:19.075Z,13.50
2018-06-09T04:39:19.309Z,13.40
2018-06-09T04:40:19.545Z,13.30
2018-06-09T04:41:19.774Z,13.90
2018-06-09T04:42:20.008Z,13.00
2018-06-09T04:43:20.242Z,13.20
2018-06-09T04:44:20.475Z,13.80
2018-06-09T04:45:20.711Z,13.20
2018-06-09T04:46:20.989Z,12.60
2018-06-09T04:47:21.177Z,12.90
2018-06-09T04:48:21.408Z,13.10
2018-06-09T04:49:21.639Z,13.20
2018-06-09T04:50:21.873Z,13.10
2018-06-09T04:51:22.108Z,13.40
2018-06-09T04:52:22.343Z,12.80
2018-06-09T04:53:22.579Z,12.90
2018-06-09T04:54:22.812Z,13.60
2018-06-09T04:55:23.046Z,13.70
2018-06-09T04:56:23.281Z,13.80
2018-06-09T04:57:23.515Z,13.30
2018-06-09T04:58:23.769Z,13.10
2018-06-09T04:59:23.984Z,13.20
2018-06-09T05:00:24.220Z,12.40
2018-06-09T05:01:24.454Z,12.40
2018-06-09T05:02:24.688Z,12.80
2018-06-09T05:03:24.923Z,13.00
2018-06-09T05:04:25.158Z,12.50
2018-06-09T05:05:25.398Z,13.40
2018-06-09T05:06:25.632Z,12.60
2018-06-09T05:07:25.868Z,12.40
2018-06-09T05:08:26.101Z,12.50
2018-06-09T05:09:26.335Z,12.10
2018-06-09T05:10:26.567Z,12.10
2018-06-09T05:11:26.802Z,12.30
2018-06-09T05:12:27.035Z,12.10
2018-06-09T05:13:27.267Z,11.80
2018-06-09T05:14:27.507Z,12.70
2018-06-09T05:15:27.742Z,12.00
2018-06-09T05:16:27.975Z,11.70
2018-06-09T05:17:28.210Z,12.10
2018-06-09T05:18:28.478Z,12.10
2018-06-09T05:19:28.683Z,10.90
2018-06-09T05:20:28.920Z,11.50
2018-06-09T05:21:29.152Z,11.80
2018-06-09T05:22:29.476Z,11.80
2018-06-09T05:23:29.658Z,12.00
2018-06-09T05:24:29.889Z,12.10
2018-06-09T05:25:30.123Z,11.70
2018-06-09T05:26:30.358Z,12.00
2018-06-09T05:27:30.594Z,12.00
2018-06-09T05:28:30.826Z,12.50
2018-06-09T05:29:31.061Z,11.40
2018-06-09T05:30:31.292Z,11.40
2018-06-09T05:31:31.528Z,11.60
2018-06-09T05:32:31.762Z,11.40
2018-06-09T05:33:31.999Z,11.30
2018-06-09T05:34:32.232Z,11.50
2018-06-09T05:35:32.468Z,10.50
2018-06-09T05:36:32.709Z,11.00
2018-06-09T05:37:32.936Z,10.90
2018-06-09T05:38:33.172Z,12.30
2018-06-09T05:39:33.408Z,11.40
2018-06-09T05:40:33.646Z,11.30
2018-06-09T05:41:33.883Z,11.20
2018-06-09T05:42:34.152Z,10.40
2018-06-09T05:43:34.351Z,10.30
2018-06-09T05:44:34.590Z,11.00
2018-06-09T05:45:34.822Z,10.70
2018-06-09T05:46:35.058Z,11.20
2018-06-09T05:47:35.294Z,11.40
2018-06-09T05:48:35.529Z,11.40
2018-06-09T05:49:35.772Z,11.10
2018-06-09T05:50:36.000Z,11.40
2018-06-09T05:51:36.236Z,10.70
2018-06-09T05:52:36.474Z,11.10
2018-06-09T05:53:36.710Z,10.80
2018-06-09T05:54:36.948Z,10.40
2018-06-09T05:55:37.197Z,11.30
2018-06-09T05:56:37.417Z,10.40
2018-06-09T05:57:37.657Z,11.00
2018-06-09T05:58:37.895Z,10.80
2018-06-09T05:59:38.130Z,10.70
2018-06-09T06:00:38.372Z,10.40
2018-06-09T06:01:38.610Z,10.50
2018-06-09T06:02:38.844Z,10.70
2018-06-09T06:03:39.078Z,10.80
2018-06-09T06:04:39.316Z,11.10
2018-06-09T06:05:39.558Z,10.50
2018-06-09T06:06:39.787Z,10.80
2018-06-09T06:07:40.025Z,10.30
2018-06-09T06:08:40.265Z,11.40
2018-06-09T06:09:40.506Z,11.60
2018-06-09T06:10:40.738Z,11.70
2018-06-09T06:11:40.975Z,10.50
2018-06-09T06:12:41.214Z,10.00
2018-06-09T06:13:41.450Z,10.60
2018-06-09T06:14:41.684Z,10.00
2018-06-09T06:15:41.927Z,10.10
2018-06-09T06:16:42.160Z,9.90
2018-06-09T06:17:42.402Z,10.70
2018-06-09T06:18:42.690Z,10.20
2018-06-09T06:19:42.883Z,10.10
2018-06-09T06:20:43.123Z,10.90
2018-06-09T06:21:43.360Z,10.80
2018-06-09T06:22:43.618Z,9.50
2018-06-09T06:23:43.840Z,9.80
2018-06-09T06:24:44.081Z,10.10
2018-06-09T06:25:44.321Z,9.90
2018-06-09T06:26:44.564Z,10.70
2018-06-09T06:27:44.803Z,10.60
2018-06-09T06:28:45.043Z,10.20
2018-06-09T06:29:45.287Z,10.60
2018-06-09T06:30:45.528Z,10.20
2018-06-09T06:31:45.791Z,9.80
2018-06-09T06:32:46.009Z,9.80
2018-06-09T06:33:46.250Z,9.20
2018-06-09T06:34:46.488Z,8.70
2018-06-09T06:35:46.734Z,8.40
2018-06-09T06:36:46.974Z,9.00
2018-06-09T06:37:47.211Z,9.30
2018-06-09T06:38:47.455Z,9.70
2018-06-09T06:39:47.696Z,9.50
2018-06-09T06:40:47.933Z,9.10
2018-06-09T06:41:48.174Z,9.10
2018-06-09T06:42:48.413Z,8.90
2018-06-09T06:43:48.653Z,9.70
2018-06-09T06:44:48.896Z,10.40
2018-06-09T06:45:49.138Z,10.10
2018-06-09T06:46:49.378Z,9.00
2018-06-09T06:47:49.619Z,9.40
2018-06-09T06:48:49.860Z,8.60
2018-06-09T06:49:50.102Z,8.70
2018-06-09T06:50:50.343Z,9.50
2018-06-09T06:51:50.585Z,9.10
2018-06-09T06:52:50.828Z,8.90
2018-06-09T06:53:51.065Z,8.50
2018-06-09T06:54:51.307Z,8.40
2018-06-09T06:55:51.550Z,7.90
2018-06-09T06:56:51.788Z,8.00
2018-06-09T06:57:52.028Z,8.80
2018-06-09T06:58:52.271Z,8.10
2018-06-09T06:59:52.514Z,8.50
2018-06-09T07:00:52.753Z,9.40
2018-06-09T07:01:53.000Z,8.60
2018-06-09T07:02:53.238Z,9.00
2018-06-09T07:03:53.480Z,9.30
2018-06-09T07:04:53.722Z,8.70
2018-06-09T07:05:53.964Z,8.70
2018-06-09T07:06:54.207Z,8.50
2018-06-09T07:07:54.489Z,8.80
2018-06-09T07:08:54.678Z,7.80
2018-06-09T07:09:54.920Z,8.10
2018-06-09T07:10:55.162Z,7.90
2018-06-09T07:11:55.406Z,7.90
2018-06-09T07:12:55.645Z,8.10
2018-06-09T07:13:55.882Z,7.70
2018-06-09T07:14:56.122Z,8.90
2018-06-09T07:15:56.357Z,8.50
2018-06-09T07:16:56.602Z,7.60
2018-06-09T07:17:56.838Z,7.20
2018-06-09T07:18:57.078Z,8.00
2018-06-09T07:19:57.321Z,7.60
2018-06-09T07:20:57.562Z,7.90
2018-06-09T07:21:57.798Z,7.70
2018-06-09T07:22:58.037Z,7.40
2018-06-09T07:23:58.279Z,7.10
2018-06-09T07:24:58.518Z,7.20
2018-06-09T07:25:58.757Z,7.00
2018-06-09T07:26:58.996Z,7.40
2018-06-09T07:27:59.234Z,7.40
2018-06-09T07:28:59.479Z,7.10
2018-06-09T07:29:59.721Z,7.50
2018-06-09T07:30:59.963Z,7.20
2018-06-09T07:32:00.198Z,7.90
2018-06-09T07:33:00.439Z,7.10
2018-06-09T07:34:00.684Z,7.10
2018-06-09T07:35:00.924Z,7.60
2018-06-09T07:36:01.166Z,7.00
2018-06-09T07:37:01.405Z,7.20
2018-06-09T07:38:01.643Z,7.10
2018-06-09T07:39:01.885Z,6.70
2018-06-09T07:40:02.123Z,7.70
2018-06-09T07:41:02.364Z,7.30
2018-06-09T07:42:02.608Z,7.90
2018-06-09T07:43:02.848Z,7.50
2018-06-09T07:44:03.109Z,7.10
2018-06-09T07:45:03.330Z,7.30
2018-06-09T07:46:03.565Z,7.40
2018-06-09T07:47:05.319Z,7.40
2018-06-09T07:48:04.076Z,7.10
2018-06-09T07:49:04.312Z,7.10
2018-06-09T07:50:04.548Z,7.20
2018-06-09T07:51:04.788Z,7.10
2018-06-09T07:52:05.027Z,7.50
2018-06-09T07:53:05.268Z,7.70
2018-06-09T07:54:05.510Z,8.00
2018-06-09T07:55:05.744Z,7.80
2018-06-09T07:56:05.982Z,8.60
2018-06-09T07:57:06.220Z,7.90
2018-06-09T07:58:06.457Z,9.00
2018-06-09T07:59:06.696Z,7.30
2018-06-09T08:00:06.934Z,6.40
2018-06-09T08:01:07.176Z,6.40
2018-06-09T08:02:07.410Z,6.60
2018-06-09T08:03:07.654Z,7.30
2018-06-09T08:04:07.887Z,7.70
2018-06-09T08:05:08.126Z,6.90
2018-06-09T08:06:08.363Z,7.80
2018-06-09T08:07:08.604Z,7.20
2018-06-09T08:08:08.840Z,7.40
2018-06-09T08:09:09.078Z,7.30
2018-06-09T08:10:09.315Z,7.00
2018-06-09T08:11:09.554Z,7.30
2018-06-09T08:12:09.792Z,6.40
2018-06-09T08:13:10.030Z,7.10
2018-06-09T08:14:10.269Z,7.40
2018-06-09T08:15:10.508Z,6.90
2018-06-09T08:16:10.746Z,6.70
2018-06-09T08:17:10.985Z,6.50
2018-06-09T08:18:11.230Z,6.30
2018-06-09T08:19:11.463Z,7.00
2018-06-09T08:20:11.700Z,6.70
2018-06-09T08:21:11.943Z,7.00
2018-06-09T08:22:12.181Z,7.00
2018-06-09T08:23:12.423Z,6.40
2018-06-09T08:24:12.667Z,6.70
2018-06-09T08:25:12.900Z,6.20
2018-06-09T08:26:13.139Z,6.80
2018-06-09T08:27:13.391Z,6.70
2018-06-09T08:28:13.619Z,6.90
2018-06-09T08:29:13.864Z,6.60
2018-06-09T08:30:14.098Z,6.40
2018-06-09T08:31:14.338Z,6.40
2018-06-09T08:32:14.575Z,6.50
2018-06-09T08:33:14.810Z,7.50
2018-06-09T08:34:15.051Z,7.20
2018-06-09T08:35:15.295Z,7.10
2018-06-09T08:36:15.547Z,6.30
2018-06-09T08:37:15.774Z,6.50
2018-06-09T08:38:16.014Z,6.90
2018-06-09T08:39:16.250Z,6.50
2018-06-09T08:40:16.493Z,6.30
2018-06-09T08:41:16.726Z,6.60
2018-06-09T08:42:16.965Z,5.70
2018-06-09T08:43:17.204Z,6.40
2018-06-09T08:44:17.443Z,5.50
2018-06-09T08:45:17.677Z,5.40
2018-06-09T08:46:17.925Z,5.70
2018-06-09T08:47:18.164Z,6.50
2018-06-09T08:48:18.401Z,6.90
2018-06-09T08:49:18.642Z,6.70
2018-06-09T08:50:18.880Z,5.90
2018-06-09T08:51:19.131Z,6.30
2018-06-09T08:52:19.357Z,6.00
2018-06-09T08:53:19.596Z,5.40
2018-06-09T08:54:19.838Z,5.90
2018-06-09T08:55:20.074Z,5.60
2018-06-09T08:56:20.315Z,6.00
2018-06-09T08:57:20.557Z,6.10
2018-06-09T08:58:20.790Z,6.20
2018-06-09T08:59:21.029Z,6.00
2018-06-09T09:00:21.267Z,6.10
2018-06-09T09:01:21.506Z,6.90
2018-06-09T09:02:21.745Z,6.40
2018-06-09T09:03:21.984Z,7.00
2018-06-09T09:04:22.222Z,6.30
2018-06-09T09:05:22.461Z,6.40
2018-06-09T09:06:22.707Z,6.70
2018-06-09T09:07:22.938Z,5.90
2018-06-09T09:08:23.177Z,6.20
2018-06-09T09:09:23.419Z,6.00
2018-06-09T09:10:23.653Z,5.80
2018-06-09T09:11:23.894Z,5.40
2018-06-09T09:12:24.138Z,6.10
2018-06-09T09:13:24.373Z,5.90
2018-06-09T09:14:24.612Z,5.90
2018-06-09T09:15:24.872Z,5.70
2018-06-09T09:16:25.169Z,5.60
2018-06-09T09:17:25.349Z,6.30
2018-06-09T09:18:25.589Z,5.80
2018-06-09T09:19:25.824Z,6.30
2018-06-09T09:20:26.068Z,5.70
2018-06-09T09:21:26.304Z,6.20
2018-06-09T09:22:26.543Z,6.10
2018-06-09T09:23:26.782Z,6.00
2018-06-09T09:24:27.020Z,6.20
2018-06-09T09:25:27.257Z,6.20
2018-06-09T09:26:27.496Z,5.70
2018-06-09T09:27:27.734Z,6.20
2018-06-09T09:28:27.974Z,6.10
2018-06-09T09:29:28.215Z,6.20
2018-06-09T09:30:28.451Z,6.10
2018-06-09T09:31:28.691Z,6.60
2018-06-09T09:32:28.929Z,6.20
2018-06-09T09:33:29.167Z,6.00
2018-06-09T09:34:29.408Z,6.40
2018-06-09T09:35:29.653Z,6.60
2018-06-09T09:36:29.883Z,6.40
2018-06-09T09:37:30.121Z,6.10
2018-06-09T09:38:30.361Z,5.80
2018-06-09T09:39:30.599Z,5.40
2018-06-09T09:40:30.839Z,6.00
2018-06-09T09:41:31.080Z,6.20
2018-06-09T09:42:31.319Z,6.30
2018-06-09T09:43:31.558Z,8.90
2018-06-09T09:44:31.797Z,6.70
2018-06-09T09:45:32.036Z,6.20
2018-06-09T09:46:32.276Z,6.30
2018-06-09T09:47:32.517Z,6.60
2018-06-09T09:48:32.755Z,6.00
2018-06-09T09:49:32.994Z,6.30
2018-06-09T09:50:33.236Z,5.90
2018-06-09T09:51:33.475Z,5.50
2018-06-09T09:52:33.713Z,5.70
2018-06-09T09:53:33.954Z,6.60
2018-06-09T09:54:34.192Z,6.10
2018-06-09T09:55:34.430Z,5.70
2018-06-09T09:56:34.669Z,7.60
2018-06-09T09:57:34.915Z,7.00
2018-06-09T09:58:35.152Z,6.40
2018-06-09T09:59:35.385Z,7.20
2018-06-09T10:00:35.628Z,7.00
2018-06-09T10:01:35.862Z,7.00
2018-06-09T10:02:36.104Z,5.80
2018-06-09T10:03:36.391Z,5.50
2018-06-09T10:04:36.631Z,5.60
2018-06-09T10:05:36.865Z,5.40
2018-06-09T10:06:37.098Z,6.20
2018-06-09T10:07:37.337Z,5.80
2018-06-09T10:08:37.575Z,6.30
2018-06-09T10:09:37.817Z,5.90
2018-06-09T10:10:38.056Z,5.70
2018-06-09T10:11:38.294Z,5.90
2018-06-09T10:12:38.537Z,5.50
2018-06-09T10:13:38.781Z,6.20
2018-06-09T10:14:39.021Z,6.10
2018-06-09T10:15:39.262Z,5.70
2018-06-09T10:16:39.499Z,6.10
2018-06-09T10:17:39.739Z,5.80
2018-06-09T10:18:39.981Z,5.60
2018-06-09T10:19:40.220Z,5.40
2018-06-09T10:20:40.455Z,5.50
2018-06-09T10:21:40.692Z,6.30
2018-06-09T10:22:40.935Z,6.30
2018-06-09T10:23:41.173Z,6.10
2018-06-09T10:24:41.409Z,5.80
2018-06-09T10:25:41.649Z,5.60
2018-06-09T10:26:41.886Z,6.50
2018-06-09T10:27:42.124Z,6.40
2018-06-09T10:28:42.364Z,6.10
2018-06-09T10:29:42.602Z,6.00
2018-06-09T10:30:42.852Z,5.90
2018-06-09T10:31:43.100Z,5.90
2018-06-09T10:32:43.369Z,6.60
2018-06-09T10:33:43.559Z,6.70
2018-06-09T10:34:43.802Z,5.90
2018-06-09T10:35:44.043Z,6.00
2018-06-09T10:36:44.284Z,6.20
2018-06-09T10:37:44.522Z,5.60
2018-06-09T10:38:44.772Z,5.60
2018-06-09T10:39:45.003Z,5.70
2018-06-09T10:40:45.241Z,6.10
2018-06-09T10:41:45.478Z,5.90
2018-06-09T10:42:45.717Z,5.90
2018-06-09T10:43:45.963Z,5.70
2018-06-09T10:44:46.198Z,6.00
2018-06-09T10:45:46.435Z,6.00
2018-06-09T10:46:46.677Z,6.10
2018-06-09T10:47:46.916Z,6.20
2018-06-09T10:48:47.159Z,5.60
2018-06-09T10:49:47.396Z,5.40
2018-06-09T10:50:47.641Z,6.10
2018-06-09T10:51:47.876Z,5.90
2018-06-09T10:52:48.119Z,5.30
2018-06-09T10:53:48.358Z,6.20
2018-06-09T10:54:48.599Z,5.20
2018-06-09T10:55:48.845Z,5.20
2018-06-09T10:56:49.083Z,5.40
2018-06-09T10:57:49.323Z,5.00
2018-06-09T10:58:49.560Z,5.70
2018-06-09T10:59:49.802Z,5.70
2018-06-09T11:00:50.048Z,6.50
2018-06-09T11:01:50.288Z,5.80
2018-06-09T11:02:50.530Z,5.60
2018-06-09T11:03:50.768Z,5.70
2018-06-09T11:04:51.005Z,6.00
2018-06-09T11:05:51.247Z,5.50
2018-06-09T11:06:51.488Z,5.60
2018-06-09T11:07:51.727Z,5.40
2018-06-09T11:08:51.966Z,5.40
2018-06-09T11:09:52.207Z,5.20
2018-06-09T11:10:52.450Z,6.10
2018-06-09T11:11:52.688Z,6.20
2018-06-09T11:12:52.925Z,5.90
2018-06-09T11:13:53.165Z,5.70
2018-06-09T11:14:53.403Z,5.40
2018-06-09T11:15:53.648Z,5.10
2018-06-09T11:16:53.884Z,5.20
2018-06-09T11:17:54.124Z,5.20
2018-06-09T11:18:54.362Z,5.50
2018-06-09T11:19:54.604Z,4.90
2018-06-09T11:20:54.844Z,6.20
2018-06-09T11:21:55.081Z,6.60
2018-06-09T11:22:55.323Z,6.80
2018-06-09T11:23:55.559Z,5.70
2018-06-09T11:24:55.802Z,6.20
2018-06-09T11:25:56.043Z,5.10
2018-06-09T11:26:56.285Z,6.10
2018-06-09T11:27:56.521Z,5.60
2018-06-09T11:28:56.763Z,5.70
2018-06-09T11:29:57.002Z,5.40
2018-06-09T11:30:57.242Z,5.30
2018-06-09T11:31:57.484Z,5.20
2018-06-09T11:32:57.721Z,5.10
2018-06-09T11:33:57.964Z,5.00
2018-06-09T11:34:58.200Z,5.30
2018-06-09T11:35:58.436Z,5.10
2018-06-09T11:36:58.677Z,4.70
2018-06-09T11:37:58.918Z,6.70
2018-06-09T11:38:59.156Z,5.30
2018-06-09T11:39:59.395Z,6.30
2018-06-09T11:40:59.638Z,5.70
2018-06-09T11:41:59.876Z,6.00
2018-06-09T11:43:00.118Z,6.80
2018-06-09T11:44:00.358Z,5.30
2018-06-09T11:45:00.600Z,5.10
2018-06-09T11:46:00.839Z,5.80
2018-06-09T11:47:01.081Z,5.30
2018-06-09T11:48:01.325Z,5.50
2018-06-09T11:49:01.561Z,5.00
2018-06-09T11:50:01.801Z,5.90
2018-06-09T11:51:02.049Z,6.20
2018-06-09T11:52:02.280Z,5.90
2018-06-09T11:53:02.526Z,5.70
2018-06-09T11:54:02.762Z,5.70
2018-06-09T11:55:03.005Z,5.20
2018-06-09T11:56:03.244Z,5.30
2018-06-09T11:57:03.485Z,5.30
2018-06-09T11:58:03.725Z,4.80
2018-06-09T11:59:03.963Z,5.40
2018-06-09T12:00:04.204Z,5.70
2018-06-09T12:01:04.447Z,5.40
2018-06-09T12:02:04.684Z,5.30
2018-06-09T12:03:04.925Z,5.40
2018-06-09T12:04:05.167Z,6.10
2018-06-09T12:05:05.410Z,5.30
2018-06-09T12:06:05.650Z,6.20
2018-06-09T12:07:05.894Z,5.30
2018-06-09T12:08:06.131Z,5.30
2018-06-09T12:09:06.373Z,6.00
2018-06-09T12:10:06.614Z,6.10
2018-06-09T12:11:06.870Z,4.90
2018-06-09T12:12:07.092Z,5.20
2018-06-09T12:13:07.330Z,5.20
2018-06-09T12:14:07.572Z,5.50
2018-06-09T12:15:07.813Z,5.00
2018-06-09T12:16:08.053Z,5.40
2018-06-09T12:17:08.294Z,5.30
2018-06-09T12:18:08.535Z,5.10
2018-06-09T12:19:08.776Z,4.80
2018-06-09T12:20:09.017Z,5.30
2018-06-09T12:21:09.278Z,5.20
2018-06-09T12:22:09.497Z,5.00
2018-06-09T12:23:09.740Z,5.60
2018-06-09T12:24:09.979Z,5.10
2018-06-09T12:25:10.226Z,5.40
2018-06-09T12:26:10.461Z,4.90
2018-06-09T12:27:10.704Z,4.80
2018-06-09T12:28:10.940Z,4.70
2018-06-09T12:29:11.182Z,5.10
2018-06-09T12:30:11.421Z,4.90
2018-06-09T12:31:11.660Z,5.50
2018-06-09T12:32:11.901Z,5.50
2018-06-09T12:33:12.144Z,4.60
2018-06-09T12:34:12.386Z,5.40
2018-06-09T12:35:12.628Z,5.20
2018-06-09T12:36:12.865Z,5.50
2018-06-09T12:37:13.106Z,4.70
2018-06-09T12:38:13.349Z,4.90
2018-06-09T12:39:13.591Z,5.20
2018-06-09T12:40:13.829Z,5.00
2018-06-09T12:41:14.066Z,5.10
2018-06-09T12:42:14.312Z,5.50
2018-06-09T12:43:14.552Z,5.20
2018-06-09T12:44:14.792Z,5.20
2018-06-09T12:45:15.032Z,5.40
2018-06-09T12:46:15.276Z,4.80
2018-06-09T12:47:15.515Z,5.00
2018-06-09T12:48:15.756Z,5.30
2018-06-09T12:49:15.996Z,7.10
2018-06-09T12:50:16.234Z,7.20
2018-06-09T12:51:16.473Z,6.20
2018-06-09T12:52:16.716Z,5.80
2018-06-09T12:53:16.954Z,5.90
2018-06-09T12:54:17.195Z,5.20
2018-06-09T12:55:17.437Z,5.00
2018-06-09T12:56:17.681Z,5.00
2018-06-09T12:57:17.917Z,5.40
2018-06-09T12:58:18.160Z,5.30
2018-06-09T12:59:18.401Z,5.90
2018-06-09T13:00:18.642Z,5.10
2018-06-09T13:01:18.883Z,6.00
2018-06-09T13:02:19.124Z,5.60
2018-06-09T13:03:19.365Z,5.90
2018-06-09T13:04:19.606Z,5.60
2018-06-09T13:05:19.846Z,5.40
2018-06-09T13:06:20.082Z,5.50
2018-06-09T13:07:20.377Z,5.30
2018-06-09T13:08:20.563Z,5.70